createdAt,value
2023-05-25T00:00:25.585Z,402
2023-05-25T00:01:27.737Z,409
2023-05-25T00:02:25.184Z,416
2023-05-25T00:03:25.050Z,405
2023-05-25T00:04:24.774Z,413
2023-05-25T00:05:25.596Z,416
2023-05-25T00:06:25.405Z,418
2023-05-25T00:07:25.224Z,425
2023-05-25T00:08:24.838Z,419
2023-05-25T00:09:25.511Z,413
2023-05-25T00:10:25.172Z,404
2023-05-25T00:11:25.492Z,412
2023-05-25T00:12:25.078Z,411
2023-05-25T00:13:25.459Z,415
2023-05-25T00:14:25.076Z,422
2023-05-25T00:15:25.947Z,414
2023-05-25T00:16:24.896Z,411
2023-05-25T00:17:25.156Z,415
2023-05-25T00:18:25.734Z,405
2023-05-25T00:19:25.685Z,398
2023-05-25T00:20:25.474Z,403
2023-05-25T00:21:25.350Z,408
2023-05-25T00:22:25.078Z,409
2023-05-25T00:23:24.893Z,402
2023-05-25T00:24:25.178Z,413
2023-05-25T00:25:25.388Z,419
2023-05-25T00:26:25.182Z,426
2023-05-25T00:27:24.790Z,421
2023-05-25T00:28:24.904Z,417
2023-05-25T00:29:25.564Z,420
2023-05-25T00:30:25.825Z,423
2023-05-25T00:31:25.276Z,421
2023-05-25T00:32:24.798Z,424
2023-05-25T00:33:25.181Z,430
2023-05-25T00:34:24.971Z,423
2023-05-25T00:35:25.452Z,410
2023-05-25T00:36:25.358Z,411
2023-05-25T00:37:24.852Z,419
2023-05-25T00:38:25.584Z,412
2023-05-25T00:39:24.965Z,413
2023-05-25T00:40:25.785Z,421
2023-05-25T00:41:24.993Z,422
2023-05-25T00:42:25.462Z,413
2023-05-25T00:43:24.685Z,397
2023-05-25T00:44:25.545Z,406
2023-05-25T00:45:25.734Z,416
2023-05-25T00:46:25.394Z,417
2023-05-25T00:47:25.187Z,419
2023-05-25T00:48:24.933Z,417
2023-05-25T00:49:25.526Z,413
2023-05-25T00:50:24.935Z,410
2023-05-25T00:51:25.493Z,414
2023-05-25T00:52:24.899Z,407
2023-05-25T00:53:25.648Z,413
2023-05-25T00:54:25.143Z,422
2023-05-25T00:55:24.941Z,420
2023-05-25T00:56:25.452Z,414
2023-05-25T00:57:25.172Z,407
2023-05-25T00:58:25.451Z,409
2023-05-25T00:59:25.085Z,410
2023-05-25T01:01:25.204Z,414
2023-05-25T01:02:24.656Z,415
2023-05-25T01:04:25.082Z,409
2023-05-25T01:05:25.401Z,405
2023-05-25T01:06:25.092Z,408
2023-05-25T01:07:25.423Z,402
2023-05-25T01:08:25.236Z,410
2023-05-25T01:09:24.498Z,416
2023-05-25T01:10:25.260Z,425
2023-05-25T01:11:24.694Z,420
2023-05-25T01:12:25.223Z,416
2023-05-25T01:13:24.716Z,427
2023-05-25T01:14:25.251Z,425
2023-05-25T01:15:25.182Z,424
2023-05-25T01:16:24.977Z,414
2023-05-25T01:17:24.704Z,417
2023-05-25T01:18:25.411Z,428
2023-05-25T01:19:24.961Z,433
2023-05-25T01:20:24.832Z,422
2023-05-25T01:21:25.180Z,420
2023-05-25T01:22:25.001Z,414
2023-05-25T01:23:25.360Z,416
2023-05-25T01:24:24.853Z,415
2023-05-25T01:25:25.292Z,419
2023-05-25T01:26:24.751Z,421
2023-05-25T01:27:25.201Z,424
2023-05-25T01:28:25.792Z,432
2023-05-25T01:29:25.047Z,426
2023-05-25T01:30:25.677Z,422
2023-05-25T01:31:25.144Z,418
2023-05-25T01:32:24.937Z,424
2023-05-25T01:33:25.317Z,428
2023-05-25T01:34:24.889Z,432
2023-05-25T01:35:25.578Z,431
2023-05-25T01:36:25.706Z,418
2023-05-25T01:38:25.085Z,424
2023-05-25T01:39:25.840Z,425
2023-05-25T01:40:25.746Z,424
2023-05-25T01:41:25.529Z,425
2023-05-25T01:42:25.010Z,420
2023-05-25T01:43:25.794Z,424
2023-05-25T01:44:25.095Z,429
2023-05-25T01:45:26.260Z,430
2023-05-25T01:46:25.313Z,433
2023-05-25T01:48:25.516Z,430
2023-05-25T01:49:25.255Z,442
2023-05-25T01:50:24.890Z,443
2023-05-25T01:51:25.484Z,430
2023-05-25T01:52:25.065Z,429
2023-05-25T01:53:24.938Z,436
2023-05-25T01:54:25.637Z,433
2023-05-25T01:55:25.058Z,428
2023-05-25T01:56:25.278Z,437
2023-05-25T01:57:25.784Z,433
2023-05-25T01:58:25.095Z,430
2023-05-25T01:59:25.475Z,435
2023-05-25T02:00:26.147Z,425
2023-05-25T02:01:24.831Z,424
2023-05-25T02:02:25.828Z,417
2023-05-25T02:03:25.171Z,419
2023-05-25T02:04:24.904Z,432
2023-05-25T02:05:25.625Z,435
2023-05-25T02:06:24.897Z,431
2023-05-25T02:07:25.224Z,443
2023-05-25T02:08:25.461Z,445
2023-05-25T02:09:24.909Z,436
2023-05-25T02:10:25.497Z,442
2023-05-25T02:11:24.841Z,437
2023-05-25T02:12:25.563Z,427
2023-05-25T02:13:24.930Z,433
2023-05-25T02:16:24.909Z,443
2023-05-25T02:17:25.556Z,445
2023-05-25T02:18:24.988Z,435
2023-05-25T02:19:25.247Z,437
2023-05-25T02:21:25.102Z,432
2023-05-25T02:22:25.750Z,430
2023-05-25T02:23:25.010Z,436
2023-05-25T02:24:25.607Z,429
2023-05-25T02:25:25.417Z,439
2023-05-25T02:27:25.465Z,437
2023-05-25T02:28:24.740Z,443
2023-05-25T02:29:25.350Z,434
2023-05-25T02:30:24.990Z,432
2023-05-25T02:31:25.537Z,431
2023-05-25T02:32:25.171Z,438
2023-05-25T02:33:25.475Z,429
2023-05-25T02:34:25.088Z,427
2023-05-25T02:35:25.348Z,430
2023-05-25T02:36:24.953Z,436
2023-05-25T02:37:25.289Z,431
2023-05-25T02:38:24.640Z,430
2023-05-25T02:39:25.398Z,421
2023-05-25T02:40:24.829Z,424
2023-05-25T02:41:25.306Z,435
2023-05-25T02:42:24.833Z,436
2023-05-25T02:43:25.177Z,434
2023-05-25T02:44:25.507Z,433
2023-05-25T02:45:25.383Z,437
2023-05-25T02:46:24.908Z,433
2023-05-25T02:47:25.853Z,434
2023-05-25T02:48:25.458Z,439
2023-05-25T02:49:24.679Z,434
2023-05-25T02:51:25.487Z,444
2023-05-25T02:52:24.726Z,443
2023-05-25T02:53:25.178Z,444
2023-05-25T02:54:25.318Z,441
2023-05-25T02:55:25.071Z,448
2023-05-25T02:56:25.439Z,442
2023-05-25T02:57:24.741Z,440
2023-05-25T02:58:25.365Z,443
2023-05-25T02:59:25.084Z,441
2023-05-25T03:00:25.771Z,437
2023-05-25T03:01:25.500Z,431
2023-05-25T03:02:25.897Z,432
2023-05-25T03:03:24.996Z,442
2023-05-25T03:04:24.992Z,445
2023-05-25T03:05:25.679Z,429
2023-05-25T03:06:25.624Z,435
2023-05-25T03:07:24.835Z,449
2023-05-25T03:08:25.492Z,432
2023-05-25T03:09:25.493Z,425
2023-05-25T03:10:25.604Z,434
2023-05-25T03:11:25.345Z,436
2023-05-25T03:12:25.001Z,438
2023-05-25T03:13:25.588Z,435
2023-05-25T03:14:25.049Z,434
2023-05-25T03:15:25.641Z,443
2023-05-25T03:16:25.032Z,436
2023-05-25T03:17:25.305Z,434
2023-05-25T03:18:25.397Z,436
2023-05-25T03:19:24.754Z,449
2023-05-25T03:20:25.030Z,454
2023-05-25T03:21:24.557Z,451
2023-05-25T03:22:25.148Z,450
2023-05-25T03:23:24.614Z,440
2023-05-25T03:24:25.133Z,432
2023-05-25T03:25:24.569Z,428
2023-05-25T03:27:25.418Z,429
2023-05-25T03:28:24.619Z,435
2023-05-25T03:29:24.878Z,439
2023-05-25T03:30:25.571Z,441
2023-05-25T03:31:24.921Z,439
2023-05-25T03:32:24.964Z,437
2023-05-25T03:33:25.095Z,429
2023-05-25T03:34:25.138Z,427
2023-05-25T03:35:25.108Z,437
2023-05-25T03:36:24.837Z,446
2023-05-25T03:37:25.464Z,443
2023-05-25T03:38:25.047Z,441
2023-05-25T03:39:24.984Z,440
2023-05-25T03:40:25.251Z,435
2023-05-25T03:41:25.787Z,427
2023-05-25T03:42:25.706Z,426
2023-05-25T03:43:25.519Z,428
2023-05-25T03:44:25.253Z,435
2023-05-25T03:46:25.666Z,436
2023-05-25T03:48:25.631Z,439
2023-05-25T03:49:25.170Z,435
2023-05-25T03:50:25.029Z,443
2023-05-25T03:51:25.711Z,452
2023-05-25T03:52:25.840Z,441
2023-05-25T03:53:25.618Z,432
2023-05-25T03:54:25.003Z,444
2023-05-25T03:55:25.165Z,441
2023-05-25T03:56:24.923Z,433
2023-05-25T03:57:24.864Z,441
2023-05-25T03:58:25.568Z,446
2023-05-25T04:00:25.768Z,431
2023-05-25T04:01:25.604Z,424
2023-05-25T04:02:25.241Z,432
2023-05-25T04:03:25.038Z,440
2023-05-25T04:04:25.497Z,442
2023-05-25T04:05:25.709Z,434
2023-05-25T04:06:24.663Z,436
2023-05-25T04:08:24.991Z,427
2023-05-25T04:09:24.951Z,432
2023-05-25T04:10:25.056Z,426
2023-05-25T04:11:25.338Z,428
2023-05-25T04:12:24.643Z,441
2023-05-25T04:13:25.619Z,446
2023-05-25T04:14:25.799Z,451
2023-05-25T04:15:25.606Z,447
2023-05-25T04:16:25.078Z,441
2023-05-25T04:17:25.470Z,458
2023-05-25T04:18:26.001Z,454
2023-05-25T04:19:25.390Z,445
2023-05-25T04:20:25.109Z,444
2023-05-25T04:21:24.870Z,451
2023-05-25T04:22:25.683Z,444
2023-05-25T04:23:25.331Z,443
2023-05-25T04:24:24.792Z,444
2023-05-25T04:27:24.609Z,439
2023-05-25T04:28:25.450Z,435
2023-05-25T04:29:25.160Z,438
2023-05-25T04:30:25.120Z,434
2023-05-25T04:31:24.790Z,430
2023-05-25T04:32:25.253Z,426
2023-05-25T04:33:25.205Z,434
2023-05-25T04:34:25.123Z,436
2023-05-25T04:35:25.034Z,432
2023-05-25T04:36:25.186Z,430
2023-05-25T04:37:25.302Z,425
2023-05-25T04:39:25.460Z,432
2023-05-25T04:40:26.084Z,430
2023-05-25T04:41:25.342Z,428
2023-05-25T04:42:25.544Z,424
2023-05-25T04:43:25.696Z,420
2023-05-25T04:45:25.549Z,427
2023-05-25T04:46:25.358Z,428
2023-05-25T04:47:25.311Z,431
2023-05-25T04:49:25.309Z,425
2023-05-25T04:50:25.061Z,431
2023-05-25T04:52:25.148Z,434
2023-05-25T04:53:25.189Z,435
2023-05-25T04:54:24.840Z,431
2023-05-25T04:55:25.680Z,417
2023-05-25T04:56:25.539Z,418
2023-05-25T04:57:25.200Z,408
2023-05-25T04:58:24.863Z,404
2023-05-25T04:59:25.804Z,405
2023-05-25T05:00:26.645Z,414
2023-05-25T05:02:25.796Z,417
2023-05-25T05:03:25.632Z,420
2023-05-25T05:04:25.307Z,414
2023-05-25T05:05:25.249Z,412
2023-05-25T05:06:24.895Z,422
2023-05-25T05:07:25.882Z,423
2023-05-25T05:08:25.703Z,406
2023-05-25T05:09:25.568Z,407
2023-05-25T05:10:25.539Z,402
2023-05-25T05:12:25.567Z,410
2023-05-25T05:13:25.470Z,408
2023-05-25T05:14:25.239Z,405
2023-05-25T05:15:25.163Z,403
2023-05-25T05:16:25.270Z,415
2023-05-25T05:18:25.545Z,413
2023-05-25T05:19:25.261Z,402
2023-05-25T05:20:25.319Z,408
2023-05-25T05:21:25.560Z,403
2023-05-25T05:22:25.260Z,404
2023-05-25T05:23:25.232Z,403
2023-05-25T05:24:24.883Z,413
2023-05-25T05:25:25.431Z,418
2023-05-25T05:26:25.218Z,413
2023-05-25T05:27:25.184Z,415
2023-05-25T05:28:25.276Z,404
2023-05-25T05:29:24.894Z,405
2023-05-25T05:31:25.636Z,404
2023-05-25T05:32:25.678Z,409
2023-05-25T05:33:25.728Z,402
2023-05-25T05:34:25.785Z,404
2023-05-25T05:35:25.754Z,397
2023-05-25T05:36:24.928Z,399
2023-05-25T05:37:25.395Z,398
2023-05-25T05:38:25.182Z,393
2023-05-25T05:39:25.500Z,404
2023-05-25T05:40:25.365Z,394
2023-05-25T05:41:25.365Z,388
2023-05-25T05:42:25.270Z,392
2023-05-25T05:43:24.771Z,385
2023-05-25T05:44:28.649Z,386
2023-05-25T05:45:25.024Z,387
2023-05-25T05:46:25.030Z,385
2023-05-25T05:47:25.375Z,378
2023-05-25T05:48:25.378Z,387
2023-05-25T05:49:25.434Z,393
2023-05-25T05:50:25.729Z,375
2023-05-25T05:52:25.324Z,380
2023-05-25T05:53:25.286Z,378
2023-05-25T05:54:25.300Z,384
2023-05-25T05:55:25.347Z,387
2023-05-25T05:56:25.354Z,388
2023-05-25T05:57:25.524Z,396
2023-05-25T05:58:25.366Z,399
2023-05-25T05:59:25.566Z,381
2023-05-25T06:00:26.430Z,375
2023-05-25T06:01:25.606Z,366
2023-05-25T06:02:25.817Z,368
2023-05-25T06:03:25.062Z,359
2023-05-25T06:04:25.334Z,363
2023-05-25T06:05:25.412Z,368
2023-05-25T06:06:25.682Z,365
2023-05-25T06:07:25.468Z,359
2023-05-25T06:08:25.254Z,350
2023-05-25T06:09:25.477Z,362
2023-05-25T06:10:25.574Z,361
2023-05-25T06:11:25.341Z,363
2023-05-25T06:12:25.536Z,366
2023-05-25T06:13:25.435Z,359
2023-05-25T06:14:27.474Z,348
2023-05-25T06:16:25.928Z,353
2023-05-25T06:18:25.561Z,358
2023-05-25T06:19:25.421Z,360
2023-05-25T06:20:25.538Z,359
2023-05-25T06:21:25.383Z,357
2023-05-25T06:22:25.476Z,366
2023-05-25T06:23:25.480Z,369
2023-05-25T06:25:25.124Z,354
2023-05-25T06:26:25.361Z,352
2023-05-25T06:27:25.218Z,361
2023-05-25T06:28:25.125Z,355
2023-05-25T06:29:24.874Z,359
2023-05-25T06:30:25.950Z,358
2023-05-25T06:31:25.879Z,350
2023-05-25T06:32:25.071Z,353
2023-05-25T06:33:25.129Z,359
2023-05-25T06:34:25.256Z,357
2023-05-25T06:36:25.077Z,351
2023-05-25T06:37:25.117Z,357
2023-05-25T06:38:25.228Z,358
2023-05-25T06:39:25.023Z,357
2023-05-25T06:40:25.078Z,365
2023-05-25T06:42:25.236Z,364
2023-05-25T06:43:25.330Z,376
2023-05-25T06:44:25.092Z,386
2023-05-25T06:45:25.436Z,373
2023-05-25T06:46:25.550Z,365
2023-05-25T06:47:25.557Z,362
2023-05-25T06:48:25.644Z,360
2023-05-25T06:49:25.872Z,355
2023-05-25T06:50:25.585Z,349
2023-05-25T06:51:25.656Z,341
2023-05-25T06:52:25.747Z,359
2023-05-25T06:53:25.969Z,358
2023-05-25T06:54:24.978Z,359
2023-05-25T06:55:25.347Z,357
2023-05-25T06:56:25.696Z,363
2023-05-25T06:57:25.674Z,366
2023-05-25T06:58:25.606Z,350
2023-05-25T06:59:25.472Z,342
2023-05-25T07:00:26.469Z,345
2023-05-25T07:01:25.550Z,342
2023-05-25T07:02:26.022Z,341
2023-05-25T07:03:25.250Z,350
2023-05-25T07:04:25.132Z,343
2023-05-25T07:05:25.344Z,350
2023-05-25T07:06:25.548Z,342
2023-05-25T07:07:25.259Z,344
2023-05-25T07:09:25.127Z,343
2023-05-25T07:10:25.491Z,344
2023-05-25T07:11:25.404Z,343
2023-05-25T07:12:25.511Z,345
2023-05-25T07:13:25.656Z,347
2023-05-25T07:14:25.354Z,353
2023-05-25T07:15:25.733Z,342
2023-05-25T07:16:25.463Z,337
2023-05-25T07:17:25.632Z,334
2023-05-25T07:18:25.735Z,319
2023-05-25T07:19:25.380Z,334
2023-05-25T07:20:25.726Z,350
2023-05-25T07:21:25.205Z,349
2023-05-25T07:23:25.467Z,338
2023-05-25T07:24:25.749Z,341
2023-05-25T07:25:25.781Z,338
2023-05-25T07:26:25.632Z,336
2023-05-25T07:27:25.698Z,351
2023-05-25T07:28:25.764Z,353
2023-05-25T07:29:25.701Z,352
2023-05-25T07:30:26.079Z,343
2023-05-25T07:31:25.441Z,340
2023-05-25T07:32:25.661Z,337
2023-05-25T07:33:25.917Z,340
2023-05-25T07:34:27.692Z,344
2023-05-25T07:35:25.880Z,353
2023-05-25T07:36:25.396Z,345
2023-05-25T07:37:25.625Z,344
2023-05-25T07:38:25.800Z,346
2023-05-25T07:39:25.992Z,350
2023-05-25T07:40:25.163Z,355
2023-05-25T07:41:25.183Z,349
2023-05-25T07:42:25.188Z,350
2023-05-25T07:43:25.334Z,348
2023-05-25T07:44:25.072Z,338
2023-05-25T07:45:25.652Z,340
2023-05-25T07:46:25.739Z,349
2023-05-25T07:47:25.743Z,342
2023-05-25T07:48:25.892Z,346
2023-05-25T07:49:25.140Z,342
2023-05-25T07:50:26.027Z,345
2023-05-25T07:51:25.293Z,347
2023-05-25T07:52:25.385Z,345
2023-05-25T07:53:25.580Z,338
2023-05-25T07:54:25.669Z,345
2023-05-25T07:55:25.219Z,341
2023-05-25T07:56:25.527Z,345
2023-05-25T07:57:25.806Z,348
2023-05-25T07:58:25.423Z,337
2023-05-25T07:59:25.587Z,339
2023-05-25T08:00:26.549Z,343
2023-05-25T08:01:27.048Z,359
2023-05-25T08:02:25.575Z,358
2023-05-25T08:03:39.843Z,345
2023-05-25T08:04:28.586Z,343
2023-05-25T08:05:25.795Z,340
2023-05-25T08:06:25.101Z,333
2023-05-25T08:07:25.137Z,332
2023-05-25T08:08:24.702Z,333
2023-05-25T08:09:25.347Z,330
2023-05-25T08:10:25.324Z,342
2023-05-25T08:11:25.231Z,357
2023-05-25T08:13:25.173Z,353
2023-05-25T08:14:25.299Z,351
2023-05-25T08:15:25.595Z,349
2023-05-25T08:16:25.616Z,345
2023-05-25T08:17:25.702Z,336
2023-05-25T08:19:25.388Z,345
2023-05-25T08:21:25.760Z,347
2023-05-25T08:22:25.379Z,335
2023-05-25T08:23:25.220Z,341
2023-05-25T08:24:25.176Z,351
2023-05-25T08:25:25.349Z,360
2023-05-25T08:26:41.266Z,356
2023-05-25T08:27:25.632Z,350
2023-05-25T08:28:25.796Z,342
2023-05-25T08:29:24.948Z,333
2023-05-25T08:30:25.353Z,330
2023-05-25T08:31:25.529Z,343
2023-05-25T08:32:25.953Z,350
2023-05-25T08:33:26.336Z,347
2023-05-25T08:34:25.617Z,358
2023-05-25T08:35:25.953Z,357
2023-05-25T08:36:25.503Z,345
2023-05-25T08:37:25.261Z,348
2023-05-25T08:38:25.363Z,333
2023-05-25T08:39:25.496Z,330
2023-05-25T08:40:25.685Z,344
2023-05-25T08:41:25.725Z,341
2023-05-25T08:42:25.663Z,340
2023-05-25T08:43:25.459Z,345
2023-05-25T08:44:25.305Z,346
2023-05-25T08:45:34.776Z,339
2023-05-25T08:46:28.982Z,333
2023-05-25T08:47:25.171Z,332
2023-05-25T08:49:25.743Z,341
2023-05-25T08:50:25.387Z,348
2023-05-25T08:51:25.614Z,352
2023-05-25T08:52:25.618Z,354
2023-05-25T08:54:25.662Z,361
2023-05-25T08:55:25.616Z,356
2023-05-25T08:56:25.114Z,358
2023-05-25T08:57:25.394Z,354
2023-05-25T08:58:25.384Z,352
2023-05-25T08:59:25.988Z,355
2023-05-25T09:00:25.895Z,349
2023-05-25T09:02:25.337Z,357
2023-05-25T09:03:25.472Z,356
2023-05-25T09:04:25.429Z,344
2023-05-25T09:05:25.510Z,350
2023-05-25T09:06:24.949Z,338
2023-05-25T09:07:25.095Z,339
2023-05-25T09:09:25.248Z,342
2023-05-25T09:10:25.688Z,335
2023-05-25T09:11:37.516Z,330
2023-05-25T09:12:26.037Z,338
2023-05-25T09:13:25.646Z,349
2023-05-25T09:14:25.253Z,359
2023-05-25T09:15:25.604Z,361
2023-05-25T09:16:25.893Z,347
2023-05-25T09:17:25.987Z,354
2023-05-25T09:18:25.553Z,350
2023-05-25T09:19:25.714Z,347
2023-05-25T09:21:25.398Z,353
2023-05-25T09:22:25.401Z,354
2023-05-25T09:23:25.366Z,360
2023-05-25T09:24:25.594Z,350
2023-05-25T09:25:25.701Z,329
2023-05-25T09:26:25.548Z,334
2023-05-25T09:27:25.549Z,341
2023-05-25T09:28:27.329Z,334
2023-05-25T09:29:25.714Z,337
2023-05-25T09:30:26.119Z,344
2023-05-25T09:31:25.589Z,360
2023-05-25T09:32:25.810Z,349
2023-05-25T09:33:25.548Z,354
2023-05-25T09:34:26.034Z,349
2023-05-25T09:35:25.387Z,351
2023-05-25T09:36:25.607Z,346
2023-05-25T09:37:25.087Z,339
2023-05-25T09:38:25.899Z,347
2023-05-25T09:39:26.114Z,343
2023-05-25T09:40:25.806Z,344
2023-05-25T09:41:25.169Z,356
2023-05-25T09:42:25.374Z,348
2023-05-25T09:43:40.221Z,344
2023-05-25T09:44:25.517Z,350
2023-05-25T09:45:25.937Z,346
2023-05-25T09:46:25.076Z,342
2023-05-25T09:47:25.456Z,346
2023-05-25T09:48:25.065Z,345
2023-05-25T09:49:25.220Z,342
2023-05-25T09:50:25.654Z,352
2023-05-25T09:51:25.599Z,355
2023-05-25T09:52:25.557Z,351
2023-05-25T09:53:25.523Z,357
2023-05-25T09:54:25.640Z,348
2023-05-25T09:55:27.356Z,359
2023-05-25T09:56:25.246Z,355
2023-05-25T09:57:25.630Z,364
2023-05-25T09:58:25.995Z,363
2023-05-25T09:59:26.038Z,355
2023-05-25T10:00:26.958Z,348
2023-05-25T10:01:26.133Z,353
2023-05-25T10:02:25.669Z,345
2023-05-25T10:03:25.326Z,337
2023-05-25T10:04:25.710Z,334
2023-05-25T10:05:25.625Z,344
2023-05-25T10:06:25.914Z,348
2023-05-25T10:07:25.209Z,347
2023-05-25T10:08:28.631Z,332
2023-05-25T10:10:25.877Z,334
2023-05-25T10:11:25.463Z,341
2023-05-25T10:12:25.652Z,335
2023-05-25T10:13:25.834Z,339
2023-05-25T10:15:25.944Z,338
2023-05-25T10:16:26.037Z,332
2023-05-25T10:17:25.743Z,328
2023-05-25T10:18:25.919Z,330
2023-05-25T10:19:25.294Z,334
2023-05-25T10:21:25.729Z,334
2023-05-25T10:22:25.852Z,337
2023-05-25T10:23:25.861Z,344
2023-05-25T10:24:25.274Z,346
2023-05-25T10:25:25.984Z,349
2023-05-25T10:26:25.669Z,340
2023-05-25T10:27:27.837Z,343
2023-05-25T10:28:25.703Z,348
2023-05-25T10:30:25.560Z,339
2023-05-25T10:31:26.053Z,334
2023-05-25T10:32:25.484Z,339
2023-05-25T10:33:25.957Z,343
2023-05-25T10:34:25.171Z,346
2023-05-25T10:35:26.082Z,348
2023-05-25T10:36:25.852Z,344
2023-05-25T10:37:25.428Z,346
2023-05-25T10:38:26.077Z,352
2023-05-25T10:39:25.593Z,362
2023-05-25T10:40:25.621Z,356
2023-05-25T10:41:25.772Z,359
2023-05-25T10:42:25.955Z,353
2023-05-25T10:43:25.094Z,349
2023-05-25T10:44:25.457Z,340
2023-05-25T10:45:25.898Z,346
2023-05-25T10:46:25.963Z,354
2023-05-25T10:47:25.401Z,341
2023-05-25T10:48:25.718Z,333
2023-05-25T10:49:26.020Z,340
2023-05-25T10:50:25.102Z,347
2023-05-25T10:51:25.144Z,349
2023-05-25T10:52:25.120Z,348
2023-05-25T10:53:25.278Z,337
2023-05-25T10:54:25.239Z,352
2023-05-25T10:55:25.989Z,351
2023-05-25T10:56:25.304Z,333
2023-05-25T10:57:25.343Z,334
2023-05-25T10:58:25.444Z,333
2023-05-25T10:59:25.841Z,326
2023-05-25T11:00:26.817Z,339
2023-05-25T11:01:25.435Z,335
2023-05-25T11:02:25.245Z,340
2023-05-25T11:04:25.362Z,339
2023-05-25T11:05:25.197Z,328
2023-05-25T11:06:24.932Z,329
2023-05-25T11:07:25.137Z,336
2023-05-25T11:08:25.541Z,339
2023-05-25T11:09:26.008Z,341
2023-05-25T11:10:25.273Z,349
2023-05-25T11:11:25.154Z,336
2023-05-25T11:12:25.052Z,328
2023-05-25T11:13:25.035Z,326
2023-05-25T11:14:25.266Z,320
2023-05-25T11:15:25.940Z,313
2023-05-25T11:16:25.794Z,334
2023-05-25T11:17:25.857Z,336
2023-05-25T11:18:25.522Z,335
2023-05-25T11:19:26.066Z,339
2023-05-25T11:20:26.041Z,335
2023-05-25T11:21:25.762Z,324
2023-05-25T11:22:25.019Z,333
2023-05-25T11:23:25.210Z,346
2023-05-25T11:26:25.962Z,344
2023-05-25T11:27:25.973Z,342
2023-05-25T11:28:25.291Z,345
2023-05-25T11:29:25.454Z,353
2023-05-25T11:30:26.032Z,354
2023-05-25T11:31:25.390Z,348
2023-05-25T11:32:25.208Z,338
2023-05-25T11:33:25.441Z,328
2023-05-25T11:35:25.252Z,337
2023-05-25T11:36:25.751Z,334
2023-05-25T11:37:25.489Z,340
2023-05-25T11:38:26.069Z,352
2023-05-25T11:39:25.381Z,349
2023-05-25T11:40:25.457Z,342
2023-05-25T11:41:25.792Z,352
2023-05-25T11:42:25.995Z,355
2023-05-25T11:43:25.163Z,354
2023-05-25T11:44:25.263Z,353
2023-05-25T11:45:25.868Z,358
2023-05-25T11:46:25.283Z,339
2023-05-25T11:47:25.782Z,340
2023-05-25T11:48:25.627Z,338
2023-05-25T11:49:25.988Z,329
2023-05-25T11:50:25.445Z,324
2023-05-25T11:51:25.804Z,326
2023-05-25T11:52:25.863Z,328
2023-05-25T11:53:25.300Z,332
2023-05-25T11:54:25.389Z,347
2023-05-25T11:55:25.862Z,346
2023-05-25T11:56:34.966Z,337
2023-05-25T11:57:26.045Z,326
2023-05-25T11:58:25.308Z,337
2023-05-25T11:59:28.176Z,341
2023-05-25T12:00:26.452Z,342
2023-05-25T12:01:25.641Z,334
2023-05-25T12:02:26.025Z,338
2023-05-25T12:03:25.654Z,340
2023-05-25T12:04:25.387Z,331
2023-05-25T12:05:26.159Z,342
2023-05-25T12:06:25.225Z,338
2023-05-25T12:08:25.438Z,350
2023-05-25T12:09:25.692Z,348
2023-05-25T12:10:26.250Z,343
2023-05-25T12:11:26.050Z,339
2023-05-25T12:12:26.172Z,337
2023-05-25T12:13:26.357Z,339
2023-05-25T12:14:26.153Z,340
2023-05-25T12:15:25.883Z,343
2023-05-25T12:16:25.090Z,335
2023-05-25T12:17:25.285Z,342
2023-05-25T12:18:25.830Z,353
2023-05-25T12:19:25.007Z,354
2023-05-25T12:20:25.305Z,342
2023-05-25T12:21:25.920Z,346
2023-05-25T12:22:25.254Z,347
2023-05-25T12:23:25.141Z,333
2023-05-25T12:24:25.340Z,337
2023-05-25T12:25:26.037Z,347
2023-05-25T12:26:25.370Z,359
2023-05-25T12:27:25.166Z,362
2023-05-25T12:28:25.228Z,348
2023-05-25T12:29:25.424Z,344
2023-05-25T12:30:26.088Z,340
2023-05-25T12:31:25.936Z,353
2023-05-25T12:32:25.310Z,351
2023-05-25T12:33:25.561Z,350
2023-05-25T12:34:25.594Z,351
2023-05-25T12:35:25.577Z,348
2023-05-25T12:36:25.546Z,334
2023-05-25T12:37:25.447Z,332
2023-05-25T12:38:25.793Z,325
2023-05-25T12:39:25.727Z,323
2023-05-25T12:40:25.760Z,327
2023-05-25T12:42:25.271Z,343
2023-05-25T12:43:25.466Z,333
2023-05-25T12:44:25.893Z,335
2023-05-25T12:47:25.568Z,353
2023-05-25T12:48:25.839Z,350
2023-05-25T12:49:25.525Z,352
2023-05-25T12:50:25.765Z,348
2023-05-25T12:51:25.822Z,342
2023-05-25T12:52:25.065Z,344
2023-05-25T12:54:25.135Z,355
2023-05-25T12:55:25.519Z,345
2023-05-25T12:56:25.408Z,339
2023-05-25T12:57:25.711Z,355
2023-05-25T12:58:25.896Z,362
2023-05-25T12:59:25.756Z,350
2023-05-25T13:00:26.824Z,343
2023-05-25T13:01:25.942Z,345
2023-05-25T13:02:25.348Z,340
2023-05-25T13:04:25.369Z,332
2023-05-25T13:05:25.659Z,346
2023-05-25T13:06:25.924Z,354
2023-05-25T13:07:25.160Z,357
2023-05-25T13:08:25.235Z,359
2023-05-25T13:09:25.439Z,336
2023-05-25T13:10:25.877Z,338
2023-05-25T13:11:25.503Z,347
2023-05-25T13:12:25.600Z,338
2023-05-25T13:13:25.659Z,328
2023-05-25T13:14:25.625Z,337
2023-05-25T13:15:25.919Z,340
2023-05-25T13:16:25.397Z,335
2023-05-25T13:17:26.171Z,344
2023-05-25T13:18:25.670Z,335
2023-05-25T13:19:25.968Z,342
2023-05-25T13:20:25.701Z,363
2023-05-25T13:21:25.635Z,350
2023-05-25T13:23:25.159Z,343
2023-05-25T13:24:25.701Z,337
2023-05-25T13:25:26.162Z,336
2023-05-25T13:26:25.673Z,341
2023-05-25T13:27:25.913Z,339
2023-05-25T13:28:25.408Z,338
2023-05-25T13:29:25.957Z,333
2023-05-25T13:30:26.642Z,337
2023-05-25T13:31:25.835Z,350
2023-05-25T13:32:25.316Z,351
2023-05-25T13:33:25.550Z,344
2023-05-25T13:34:25.810Z,339
2023-05-25T13:35:26.050Z,338
2023-05-25T13:36:25.738Z,331
2023-05-25T13:37:26.070Z,336
2023-05-25T13:38:25.359Z,344
2023-05-25T13:39:25.555Z,331
2023-05-25T13:40:26.148Z,333
2023-05-25T13:41:25.675Z,341
2023-05-25T13:42:25.560Z,335
2023-05-25T13:43:25.631Z,334
2023-05-25T13:44:25.953Z,326
2023-05-25T13:45:25.667Z,330
2023-05-25T13:46:34.005Z,334
2023-05-25T13:47:26.340Z,337
2023-05-25T13:48:26.133Z,333
2023-05-25T13:49:26.486Z,342
2023-05-25T13:50:25.636Z,344
2023-05-25T13:51:25.532Z,351
2023-05-25T13:52:25.570Z,355
2023-05-25T13:53:25.370Z,349
2023-05-25T13:54:25.464Z,342
2023-05-25T13:55:25.403Z,335
2023-05-25T13:56:25.441Z,340
2023-05-25T13:57:25.743Z,333
2023-05-25T13:58:25.737Z,329
2023-05-25T13:59:26.249Z,330
2023-05-25T14:00:26.027Z,336
2023-05-25T14:01:25.466Z,338
2023-05-25T14:02:25.953Z,344
2023-05-25T14:03:25.675Z,340
2023-05-25T14:04:25.630Z,354
2023-05-25T14:05:25.837Z,352
2023-05-25T14:06:25.443Z,338
2023-05-25T14:07:25.434Z,331
2023-05-25T14:08:25.580Z,327
2023-05-25T14:09:25.792Z,325
2023-05-25T14:10:25.969Z,321
2023-05-25T14:12:25.323Z,328
2023-05-25T14:13:25.446Z,339
2023-05-25T14:14:32.267Z,336
2023-05-25T14:15:25.966Z,326
2023-05-25T14:16:25.486Z,334
2023-05-25T14:17:25.542Z,331
2023-05-25T14:18:25.999Z,323
2023-05-25T14:19:25.250Z,327
2023-05-25T14:20:25.830Z,345
2023-05-25T14:21:25.312Z,344
2023-05-25T14:22:25.653Z,340
2023-05-25T14:23:25.964Z,346
2023-05-25T14:24:25.364Z,350
2023-05-25T14:25:25.503Z,341
2023-05-25T14:26:25.112Z,339
2023-05-25T14:27:25.984Z,342
2023-05-25T14:28:25.273Z,337
2023-05-25T14:29:25.405Z,339
2023-05-25T14:30:25.745Z,322
2023-05-25T14:31:25.945Z,314
2023-05-25T14:32:25.293Z,332
2023-05-25T14:33:25.388Z,338
2023-05-25T14:34:25.443Z,335
2023-05-25T14:35:25.933Z,329
2023-05-25T14:36:25.395Z,323
2023-05-25T14:37:25.789Z,337
2023-05-25T14:38:25.413Z,343
2023-05-25T14:39:25.646Z,340
2023-05-25T14:40:25.895Z,333
2023-05-25T14:41:25.618Z,334
2023-05-25T14:42:25.826Z,331